sensor_id;sensor_type;location;lat;lon;timestamp;P1;durP1;ratioP1;P2;durP2;ratioP2
73841;SDS011;62184;52.006;5.924;2023-05-07T00:01:18;13.85;;;10.65;;
73841;SDS011;62184;52.006;5.924;2023-05-07T00:03:44;13.88;;;10.57;;
73841;SDS011;62184;52.006;5.924;2023-05-07T00:06:11;13.77;;;10.73;;
73841;SDS011;62184;52.006;5.924;2023-05-07T00:08:37;15.05;;;11.02;;
73841;SDS011;62184;52.006;5.924;2023-05-07T00:11:04;13.68;;;10.55;;
73841;SDS011;62184;52.006;5.924;2023-05-07T00:13:30;14.27;;;10.65;;
73841;SDS011;62184;52.006;5.924;2023-05-07T00:15:59;15.03;;;11.00;;
73841;SDS011;62184;52.006;5.924;2023-05-07T00:18:25;15.18;;;10.98;;
73841;SDS011;62184;52.006;5.924;2023-05-07T00:20:52;15.00;;;11.10;;
73841;SDS011;62184;52.006;5.924;2023-05-07T00:23:18;14.50;;;11.00;;
73841;SDS011;62184;52.006;5.924;2023-05-07T00:25:44;14.80;;;11.20;;
73841;SDS011;62184;52.006;5.924;2023-05-07T00:28:11;14.27;;;10.97;;
73841;SDS011;62184;52.006;5.924;2023-05-07T00:30:37;15.10;;;11.43;;
73841;SDS011;62184;52.006;5.924;2023-05-07T00:33:06;15.25;;;11.60;;
73841;SDS011;62184;52.006;5.924;2023-05-07T00:35:33;15.83;;;11.90;;
73841;SDS011;62184;52.006;5.924;2023-05-07T00:37:59;16.67;;;11.68;;
73841;SDS011;62184;52.006;5.924;2023-05-07T00:40:26;16.50;;;11.95;;
73841;SDS011;62184;52.006;5.924;2023-05-07T00:42:52;15.75;;;12.00;;
73841;SDS011;62184;52.006;5.924;2023-05-07T00:45:18;17.02;;;12.45;;
73841;SDS011;62184;52.006;5.924;2023-05-07T00:47:45;16.10;;;12.40;;
73841;SDS011;62184;52.006;5.924;2023-05-07T00:50:14;16.33;;;12.27;;
73841;SDS011;62184;52.006;5.924;2023-05-07T00:52:41;16.10;;;13.07;;
73841;SDS011;62184;52.006;5.924;2023-05-07T00:55:07;17.60;;;13.07;;
73841;SDS011;62184;52.006;5.924;2023-05-07T00:57:35;18.13;;;13.47;;
73841;SDS011;62184;52.006;5.924;2023-05-07T01:00:05;18.17;;;14.00;;
73841;SDS011;62184;52.006;5.924;2023-05-07T01:02:33;18.30;;;14.23;;
73841;SDS011;62184;52.006;5.924;2023-05-07T01:05:00;19.75;;;14.57;;
73841;SDS011;62184;52.006;5.924;2023-05-07T01:07:31;19.50;;;14.98;;
73841;SDS011;62184;52.006;5.924;2023-05-07T01:10:00;20.38;;;15.40;;
73841;SDS011;62184;52.006;5.924;2023-05-07T01:12:27;20.00;;;15.55;;
73841;SDS011;62184;52.006;5.924;2023-05-07T01:14:55;21.73;;;15.30;;
73841;SDS011;62184;52.006;5.924;2023-05-07T01:17:22;22.00;;;16.13;;
73841;SDS011;62184;52.006;5.924;2023-05-07T01:19:49;21.98;;;17.42;;
73841;SDS011;62184;52.006;5.924;2023-05-07T01:22:16;21.05;;;16.77;;
73841;SDS011;62184;52.006;5.924;2023-05-07T01:24:54;22.73;;;16.63;;
73841;SDS011;62184;52.006;5.924;2023-05-07T01:27:20;20.90;;;16.63;;
73841;SDS011;62184;52.006;5.924;2023-05-07T01:29:47;20.80;;;16.30;;
73841;SDS011;62184;52.006;5.924;2023-05-07T01:32:13;19.00;;;15.37;;
73841;SDS011;62184;52.006;5.924;2023-05-07T01:34:44;20.10;;;16.17;;
73841;SDS011;62184;52.006;5.924;2023-05-07T01:37:14;21.15;;;16.15;;
73841;SDS011;62184;52.006;5.924;2023-05-07T01:39:43;20.27;;;16.38;;
73841;SDS011;62184;52.006;5.924;2023-05-07T01:42:10;19.52;;;16.08;;
73841;SDS011;62184;52.006;5.924;2023-05-07T01:44:38;21.77;;;16.30;;
73841;SDS011;62184;52.006;5.924;2023-05-07T01:47:04;21.80;;;16.25;;
73841;SDS011;62184;52.006;5.924;2023-05-07T01:49:32;20.25;;;16.70;;
73841;SDS011;62184;52.006;5.924;2023-05-07T01:51:58;20.77;;;16.65;;
73841;SDS011;62184;52.006;5.924;2023-05-07T01:54:26;20.55;;;16.45;;
73841;SDS011;62184;52.006;5.924;2023-05-07T01:56:55;20.73;;;16.80;;
73841;SDS011;62184;52.006;5.924;2023-05-07T01:59:22;19.63;;;16.08;;
73841;SDS011;62184;52.006;5.924;2023-05-07T02:01:49;21.23;;;15.43;;
73841;SDS011;62184;52.006;5.924;2023-05-07T02:04:15;19.00;;;15.43;;
73841;SDS011;62184;52.006;5.924;2023-05-07T02:06:41;19.50;;;15.20;;
73841;SDS011;62184;52.006;5.924;2023-05-07T02:09:08;19.97;;;16.07;;
73841;SDS011;62184;52.006;5.924;2023-05-07T02:11:34;20.83;;;15.73;;
73841;SDS011;62184;52.006;5.924;2023-05-07T02:14:03;19.83;;;15.98;;
73841;SDS011;62184;52.006;5.924;2023-05-07T02:16:30;20.27;;;15.67;;
73841;SDS011;62184;52.006;5.924;2023-05-07T02:18:56;19.27;;;15.30;;
73841;SDS011;62184;52.006;5.924;2023-05-07T02:21:23;19.00;;;14.80;;
73841;SDS011;62184;52.006;5.924;2023-05-07T02:23:50;17.77;;;15.35;;
73841;SDS011;62184;52.006;5.924;2023-05-07T02:26:17;18.35;;;14.70;;
73841;SDS011;62184;52.006;5.924;2023-05-07T02:28:44;19.60;;;15.55;;
73841;SDS011;62184;52.006;5.924;2023-05-07T02:31:13;18.25;;;14.48;;
73841;SDS011;62184;52.006;5.924;2023-05-07T02:33:39;17.75;;;14.32;;
73841;SDS011;62184;52.006;5.924;2023-05-07T02:36:06;17.43;;;13.70;;
73841;SDS011;62184;52.006;5.924;2023-05-07T02:38:33;17.60;;;13.82;;
73841;SDS011;62184;52.006;5.924;2023-05-07T02:41:00;20.80;;;14.38;;
73841;SDS011;62184;52.006;5.924;2023-05-07T02:43:26;19.80;;;14.07;;
73841;SDS011;62184;52.006;5.924;2023-05-07T02:45:59;17.43;;;13.50;;
73841;SDS011;62184;52.006;5.924;2023-05-07T02:48:30;17.63;;;13.95;;
73841;SDS011;62184;52.006;5.924;2023-05-07T02:50:56;19.38;;;14.07;;
73841;SDS011;62184;52.006;5.924;2023-05-07T02:53:23;17.20;;;13.97;;
73841;SDS011;62184;52.006;5.924;2023-05-07T02:55:49;17.13;;;13.30;;
73841;SDS011;62184;52.006;5.924;2023-05-07T02:58:16;17.20;;;13.05;;
73841;SDS011;62184;52.006;5.924;2023-05-07T03:00:42;18.27;;;13.15;;
73841;SDS011;62184;52.006;5.924;2023-05-07T03:03:09;17.30;;;13.20;;
73841;SDS011;62184;52.006;5.924;2023-05-07T03:05:38;19.10;;;13.77;;
73841;SDS011;62184;52.006;5.924;2023-05-07T03:08:04;19.45;;;13.68;;
73841;SDS011;62184;52.006;5.924;2023-05-07T03:10:31;17.73;;;13.75;;
73841;SDS011;62184;52.006;5.924;2023-05-07T03:12:57;19.73;;;14.38;;
73841;SDS011;62184;52.006;5.924;2023-05-07T03:15:23;17.83;;;14.43;;
73841;SDS011;62184;52.006;5.924;2023-05-07T03:17:50;19.23;;;14.50;;
73841;SDS011;62184;52.006;5.924;2023-05-07T03:20:16;19.27;;;13.70;;
73841;SDS011;62184;52.006;5.924;2023-05-07T03:22:45;17.40;;;13.07;;
73841;SDS011;62184;52.006;5.924;2023-05-07T03:25:12;17.80;;;12.75;;
73841;SDS011;62184;52.006;5.924;2023-05-07T03:27:38;17.92;;;13.50;;
73841;SDS011;62184;52.006;5.924;2023-05-07T03:30:06;18.58;;;13.45;;
73841;SDS011;62184;52.006;5.924;2023-05-07T03:32:34;18.80;;;13.45;;
73841;SDS011;62184;52.006;5.924;2023-05-07T03:35:00;18.10;;;14.15;;
73841;SDS011;62184;52.006;5.924;2023-05-07T03:37:27;19.75;;;14.63;;
73841;SDS011;62184;52.006;5.924;2023-05-07T03:39:56;18.90;;;14.55;;
73841;SDS011;62184;52.006;5.924;2023-05-07T03:42:22;20.00;;;15.48;;
73841;SDS011;62184;52.006;5.924;2023-05-07T03:44:49;19.85;;;15.23;;
73841;SDS011;62184;52.006;5.924;2023-05-07T03:47:15;22.05;;;16.65;;
73841;SDS011;62184;52.006;5.924;2023-05-07T03:49:42;22.25;;;16.63;;
73841;SDS011;62184;52.006;5.924;2023-05-07T03:52:08;23.65;;;17.90;;
73841;SDS011;62184;52.006;5.924;2023-05-07T03:54:34;24.25;;;17.73;;
73841;SDS011;62184;52.006;5.924;2023-05-07T03:57:03;23.10;;;18.25;;
73841;SDS011;62184;52.006;5.924;2023-05-07T03:59:30;23.38;;;18.45;;
73841;SDS011;62184;52.006;5.924;2023-05-07T04:01:56;24.65;;;18.60;;
73841;SDS011;62184;52.006;5.924;2023-05-07T04:04:23;23.77;;;18.25;;
73841;SDS011;62184;52.006;5.924;2023-05-07T04:06:50;22.90;;;18.27;;
73841;SDS011;62184;52.006;5.924;2023-05-07T04:09:16;24.10;;;18.88;;
73841;SDS011;62184;52.006;5.924;2023-05-07T04:11:43;22.48;;;18.50;;
73841;SDS011;62184;52.006;5.924;2023-05-07T04:14:12;22.60;;;18.00;;
73841;SDS011;62184;52.006;5.924;2023-05-07T04:16:38;22.98;;;17.92;;
73841;SDS011;62184;52.006;5.924;2023-05-07T04:19:04;24.35;;;19.30;;
73841;SDS011;62184;52.006;5.924;2023-05-07T04:21:31;24.38;;;18.40;;
73841;SDS011;62184;52.006;5.924;2023-05-07T04:23:57;24.00;;;19.08;;
73841;SDS011;62184;52.006;5.924;2023-05-07T04:26:24;23.92;;;19.02;;
73841;SDS011;62184;52.006;5.924;2023-05-07T04:28:50;24.88;;;19.63;;
73841;SDS011;62184;52.006;5.924;2023-05-07T04:31:19;26.45;;;19.85;;
73841;SDS011;62184;52.006;5.924;2023-05-07T04:33:46;24.97;;;19.50;;
73841;SDS011;62184;52.006;5.924;2023-05-07T04:36:12;25.63;;;19.88;;
73841;SDS011;62184;52.006;5.924;2023-05-07T04:38:39;29.63;;;20.55;;
73841;SDS011;62184;52.006;5.924;2023-05-07T04:41:06;25.95;;;20.60;;
73841;SDS011;62184;52.006;5.924;2023-05-07T04:43:32;27.75;;;20.52;;
73841;SDS011;62184;52.006;5.924;2023-05-07T04:46:00;27.00;;;19.73;;
73841;SDS011;62184;52.006;5.924;2023-05-07T04:48:29;28.10;;;20.50;;
73841;SDS011;62184;52.006;5.924;2023-05-07T04:50:56;28.05;;;20.60;;
73841;SDS011;62184;52.006;5.924;2023-05-07T04:53:22;27.00;;;20.50;;
73841;SDS011;62184;52.006;5.924;2023-05-07T04:55:54;26.00;;;20.20;;
73841;SDS011;62184;52.006;5.924;2023-05-07T04:58:22;24.95;;;19.88;;
73841;SDS011;62184;52.006;5.924;2023-05-07T05:00:48;26.35;;;20.58;;
73841;SDS011;62184;52.006;5.924;2023-05-07T05:03:14;27.00;;;20.15;;
73841;SDS011;62184;52.006;5.924;2023-05-07T05:05:43;25.90;;;19.90;;
73841;SDS011;62184;52.006;5.924;2023-05-07T05:08:10;25.23;;;20.15;;
73841;SDS011;62184;52.006;5.924;2023-05-07T05:10:36;26.67;;;20.25;;
73841;SDS011;62184;52.006;5.924;2023-05-07T05:13:03;24.20;;;19.25;;
73841;SDS011;62184;52.006;5.924;2023-05-07T05:15:29;26.17;;;19.80;;
73841;SDS011;62184;52.006;5.924;2023-05-07T05:17:55;24.87;;;19.17;;
73841;SDS011;62184;52.006;5.924;2023-05-07T05:20:22;26.17;;;19.42;;
73841;SDS011;62184;52.006;5.924;2023-05-07T05:22:51;25.90;;;19.52;;
73841;SDS011;62184;52.006;5.924;2023-05-07T05:25:17;24.87;;;19.50;;
73841;SDS011;62184;52.006;5.924;2023-05-07T05:27:44;26.08;;;19.75;;
73841;SDS011;62184;52.006;5.924;2023-05-07T05:30:11;25.23;;;19.73;;
73841;SDS011;62184;52.006;5.924;2023-05-07T05:32:38;24.50;;;19.27;;
73841;SDS011;62184;52.006;5.924;2023-05-07T05:35:05;24.38;;;19.17;;
73841;SDS011;62184;52.006;5.924;2023-05-07T05:37:33;24.35;;;18.92;;
73841;SDS011;62184;52.006;5.924;2023-05-07T05:40:02;25.17;;;19.08;;
73841;SDS011;62184;52.006;5.924;2023-05-07T05:42:29;24.15;;;19.20;;
73841;SDS011;62184;52.006;5.924;2023-05-07T05:44:56;23.63;;;18.90;;
73841;SDS011;62184;52.006;5.924;2023-05-07T05:47:22;25.00;;;18.47;;
73841;SDS011;62184;52.006;5.924;2023-05-07T05:49:48;24.75;;;19.23;;
73841;SDS011;62184;52.006;5.924;2023-05-07T05:52:15;24.17;;;19.05;;
73841;SDS011;62184;52.006;5.924;2023-05-07T05:54:41;26.13;;;19.70;;
73841;SDS011;62184;52.006;5.924;2023-05-07T05:57:10;24.50;;;19.17;;
73841;SDS011;62184;52.006;5.924;2023-05-07T05:59:37;24.23;;;19.35;;
73841;SDS011;62184;52.006;5.924;2023-05-07T06:02:03;24.70;;;19.45;;
73841;SDS011;62184;52.006;5.924;2023-05-07T06:04:30;25.13;;;19.40;;
73841;SDS011;62184;52.006;5.924;2023-05-07T06:06:56;25.23;;;19.15;;
73841;SDS011;62184;52.006;5.924;2023-05-07T06:09:22;24.20;;;19.20;;
73841;SDS011;62184;52.006;5.924;2023-05-07T06:11:49;23.77;;;18.83;;
73841;SDS011;62184;52.006;5.924;2023-05-07T06:14:18;25.27;;;19.43;;
73841;SDS011;62184;52.006;5.924;2023-05-07T06:16:44;26.08;;;19.27;;
73841;SDS011;62184;52.006;5.924;2023-05-07T06:19:11;25.23;;;18.95;;
73841;SDS011;62184;52.006;5.924;2023-05-07T06:21:38;25.67;;;19.92;;
73841;SDS011;62184;52.006;5.924;2023-05-07T06:24:05;25.25;;;19.73;;
73841;SDS011;62184;52.006;5.924;2023-05-07T06:26:32;25.65;;;19.80;;
73841;SDS011;62184;52.006;5.924;2023-05-07T06:28:59;25.98;;;19.90;;
73841;SDS011;62184;52.006;5.924;2023-05-07T06:31:29;24.42;;;19.80;;
73841;SDS011;62184;52.006;5.924;2023-05-07T06:33:56;25.17;;;20.10;;
73841;SDS011;62184;52.006;5.924;2023-05-07T06:36:22;26.27;;;20.13;;
73841;SDS011;62184;52.006;5.924;2023-05-07T06:38:49;23.35;;;19.67;;
73841;SDS011;62184;52.006;5.924;2023-05-07T06:41:15;24.63;;;19.75;;
73841;SDS011;62184;52.006;5.924;2023-05-07T06:43:41;23.33;;;19.17;;
73841;SDS011;62184;52.006;5.924;2023-05-07T06:46:08;23.27;;;19.52;;
73841;SDS011;62184;52.006;5.924;2023-05-07T06:48:37;24.17;;;19.02;;
73841;SDS011;62184;52.006;5.924;2023-05-07T06:51:03;23.63;;;19.10;;
73841;SDS011;62184;52.006;5.924;2023-05-07T06:53:30;24.73;;;20.05;;
73841;SDS011;62184;52.006;5.924;2023-05-07T06:55:57;22.58;;;18.48;;
73841;SDS011;62184;52.006;5.924;2023-05-07T06:58:23;22.70;;;18.90;;
73841;SDS011;62184;52.006;5.924;2023-05-07T07:00:50;23.00;;;18.83;;
73841;SDS011;62184;52.006;5.924;2023-05-07T07:03:16;22.27;;;18.33;;
73841;SDS011;62184;52.006;5.924;2023-05-07T07:05:45;22.92;;;18.83;;
73841;SDS011;62184;52.006;5.924;2023-05-07T07:08:11;23.90;;;19.30;;
73841;SDS011;62184;52.006;5.924;2023-05-07T07:10:38;23.98;;;19.52;;
73841;SDS011;62184;52.006;5.924;2023-05-07T07:13:04;24.98;;;19.70;;
73841;SDS011;62184;52.006;5.924;2023-05-07T07:15:31;24.00;;;19.67;;
73841;SDS011;62184;52.006;5.924;2023-05-07T07:17:57;23.15;;;19.20;;
73841;SDS011;62184;52.006;5.924;2023-05-07T07:20:24;24.02;;;19.95;;
73841;SDS011;62184;52.006;5.924;2023-05-07T07:22:53;24.42;;;20.10;;
73841;SDS011;62184;52.006;5.924;2023-05-07T07:25:19;24.87;;;19.20;;
73841;SDS011;62184;52.006;5.924;2023-05-07T07:27:45;23.30;;;19.25;;
73841;SDS011;62184;52.006;5.924;2023-05-07T07:30:12;23.42;;;19.65;;
73841;SDS011;62184;52.006;5.924;2023-05-07T07:32:39;25.63;;;20.50;;
73841;SDS011;62184;52.006;5.924;2023-05-07T07:35:06;24.10;;;19.80;;
73841;SDS011;62184;52.006;5.924;2023-05-07T07:37:33;25.67;;;19.83;;
73841;SDS011;62184;52.006;5.924;2023-05-07T07:40:03;24.80;;;19.45;;
73841;SDS011;62184;52.006;5.924;2023-05-07T07:42:30;24.33;;;19.77;;
73841;SDS011;62184;52.006;5.924;2023-05-07T07:44:57;23.92;;;18.98;;
73841;SDS011;62184;52.006;5.924;2023-05-07T07:47:23;23.23;;;19.05;;
73841;SDS011;62184;52.006;5.924;2023-05-07T07:49:50;21.70;;;18.57;;
73841;SDS011;62184;52.006;5.924;2023-05-07T07:52:16;21.97;;;18.10;;
73841;SDS011;62184;52.006;5.924;2023-05-07T07:54:44;22.52;;;18.70;;
73841;SDS011;62184;52.006;5.924;2023-05-07T07:57:13;23.95;;;19.25;;
73841;SDS011;62184;52.006;5.924;2023-05-07T07:59:39;23.65;;;18.75;;
73841;SDS011;62184;52.006;5.924;2023-05-07T08:02:06;22.02;;;18.33;;
73841;SDS011;62184;52.006;5.924;2023-05-07T08:04:32;21.27;;;18.10;;
73841;SDS011;62184;52.006;5.924;2023-05-07T08:06:58;22.30;;;18.20;;
73841;SDS011;62184;52.006;5.924;2023-05-07T08:09:25;21.98;;;18.00;;
73841;SDS011;62184;52.006;5.924;2023-05-07T08:11:51;21.73;;;17.85;;
73841;SDS011;62184;52.006;5.924;2023-05-07T08:14:21;21.63;;;17.40;;
73841;SDS011;62184;52.006;5.924;2023-05-07T08:16:48;23.70;;;18.65;;
73841;SDS011;62184;52.006;5.924;2023-05-07T08:19:14;21.90;;;18.60;;
73841;SDS011;62184;52.006;5.924;2023-05-07T08:21:40;23.53;;;18.03;;
73841;SDS011;62184;52.006;5.924;2023-05-07T08:24:07;22.52;;;18.42;;
73841;SDS011;62184;52.006;5.924;2023-05-07T08:26:33;19.88;;;17.30;;
73841;SDS011;62184;52.006;5.924;2023-05-07T08:29:00;22.15;;;17.77;;
73841;SDS011;62184;52.006;5.924;2023-05-07T08:31:29;21.30;;;17.85;;
73841;SDS011;62184;52.006;5.924;2023-05-07T08:33:55;21.23;;;17.83;;
73841;SDS011;62184;52.006;5.924;2023-05-07T08:36:22;21.33;;;17.35;;
73841;SDS011;62184;52.006;5.924;2023-05-07T08:38:49;23.25;;;17.73;;
73841;SDS011;62184;52.006;5.924;2023-05-07T08:41:15;22.02;;;18.20;;
73841;SDS011;62184;52.006;5.924;2023-05-07T08:43:42;22.20;;;17.63;;
73841;SDS011;62184;52.006;5.924;2023-05-07T08:46:15;19.65;;;16.67;;
73841;SDS011;62184;52.006;5.924;2023-05-07T08:48:46;20.13;;;16.58;;
73841;SDS011;62184;52.006;5.924;2023-05-07T08:51:15;18.95;;;15.93;;
73841;SDS011;62184;52.006;5.924;2023-05-07T08:53:44;18.75;;;15.45;;
73841;SDS011;62184;52.006;5.924;2023-05-07T08:56:12;18.98;;;16.20;;
73841;SDS011;62184;52.006;5.924;2023-05-07T08:58:40;22.10;;;16.45;;
73841;SDS011;62184;52.006;5.924;2023-05-07T09:01:07;17.63;;;15.48;;
73841;SDS011;62184;52.006;5.924;2023-05-07T09:03:36;19.27;;;15.27;;
73841;SDS011;62184;52.006;5.924;2023-05-07T09:06:06;17.95;;;15.18;;
73841;SDS011;62184;52.006;5.924;2023-05-07T09:08:33;16.52;;;14.30;;
73841;SDS011;62184;52.006;5.924;2023-05-07T09:11:01;17.40;;;15.50;;
73841;SDS011;62184;52.006;5.924;2023-05-07T09:13:27;19.23;;;16.03;;
73841;SDS011;62184;52.006;5.924;2023-05-07T09:15:55;19.77;;;15.10;;
73841;SDS011;62184;52.006;5.924;2023-05-07T09:18:23;18.02;;;15.05;;
73841;SDS011;62184;52.006;5.924;2023-05-07T09:20:50;19.07;;;15.53;;
73841;SDS011;62184;52.006;5.924;2023-05-07T09:23:19;18.85;;;15.35;;
73841;SDS011;62184;52.006;5.924;2023-05-07T09:25:46;19.52;;;15.32;;
73841;SDS011;62184;52.006;5.924;2023-05-07T09:28:13;18.83;;;15.93;;
73841;SDS011;62184;52.006;5.924;2023-05-07T09:30:39;18.60;;;15.52;;
73841;SDS011;62184;52.006;5.924;2023-05-07T09:33:05;18.90;;;15.63;;
73841;SDS011;62184;52.006;5.924;2023-05-07T09:35:32;16.90;;;14.60;;
73841;SDS011;62184;52.006;5.924;2023-05-07T09:37:59;18.98;;;15.35;;
73841;SDS011;62184;52.006;5.924;2023-05-07T09:40:29;17.73;;;15.43;;
73841;SDS011;62184;52.006;5.924;2023-05-07T09:43:01;18.80;;;15.07;;
73841;SDS011;62184;52.006;5.924;2023-05-07T09:45:35;16.13;;;13.70;;
73841;SDS011;62184;52.006;5.924;2023-05-07T09:48:04;17.13;;;13.60;;
73841;SDS011;62184;52.006;5.924;2023-05-07T09:50:32;15.53;;;13.30;;
73841;SDS011;62184;52.006;5.924;2023-05-07T09:53:06;15.10;;;13.10;;
73841;SDS011;62184;52.006;5.924;2023-05-07T09:55:38;15.75;;;13.75;;
73841;SDS011;62184;52.006;5.924;2023-05-07T09:58:06;15.50;;;13.43;;
73841;SDS011;62184;52.006;5.924;2023-05-07T10:00:33;15.27;;;13.27;;
73841;SDS011;62184;52.006;5.924;2023-05-07T10:03:00;17.73;;;14.73;;
73841;SDS011;62184;52.006;5.924;2023-05-07T10:05:30;15.88;;;13.27;;
73841;SDS011;62184;52.006;5.924;2023-05-07T10:07:57;14.93;;;13.32;;
73841;SDS011;62184;52.006;5.924;2023-05-07T10:10:26;16.25;;;14.00;;
73841;SDS011;62184;52.006;5.924;2023-05-07T10:12:57;16.48;;;14.68;;
73841;SDS011;62184;52.006;5.924;2023-05-07T10:15:24;15.40;;;13.48;;
73841;SDS011;62184;52.006;5.924;2023-05-07T10:17:52;15.70;;;13.77;;
73841;SDS011;62184;52.006;5.924;2023-05-07T10:20:20;16.60;;;14.80;;
73841;SDS011;62184;52.006;5.924;2023-05-07T10:22:47;17.17;;;15.10;;
73841;SDS011;62184;52.006;5.924;2023-05-07T10:25:18;16.65;;;14.63;;
73841;SDS011;62184;52.006;5.924;2023-05-07T10:27:51;16.85;;;14.77;;
73841;SDS011;62184;52.006;5.924;2023-05-07T10:30:26;17.05;;;15.25;;
73841;SDS011;62184;52.006;5.924;2023-05-07T10:33:07;16.95;;;15.15;;
73841;SDS011;62184;52.006;5.924;2023-05-07T10:35:41;17.58;;;15.80;;
73841;SDS011;62184;52.006;5.924;2023-05-07T10:38:10;17.07;;;15.27;;
73841;SDS011;62184;52.006;5.924;2023-05-07T10:40:37;15.88;;;14.13;;
73841;SDS011;62184;52.006;5.924;2023-05-07T10:43:07;15.83;;;14.23;;
73841;SDS011;62184;52.006;5.924;2023-05-07T10:45:36;16.45;;;14.80;;
73841;SDS011;62184;52.006;5.924;2023-05-07T10:48:10;16.87;;;15.07;;
73841;SDS011;62184;52.006;5.924;2023-05-07T10:50:38;17.50;;;15.70;;
73841;SDS011;62184;52.006;5.924;2023-05-07T10:53:22;17.02;;;15.25;;
73841;SDS011;62184;52.006;5.924;2023-05-07T10:55:50;15.50;;;14.00;;
73841;SDS011;62184;52.006;5.924;2023-05-07T10:58:53;16.58;;;14.98;;
73841;SDS011;62184;52.006;5.924;2023-05-07T11:04:16;16.63;;;14.93;;
73841;SDS011;62184;52.006;5.924;2023-05-07T11:06:49;16.58;;;14.88;;
73841;SDS011;62184;52.006;5.924;2023-05-07T11:09:55;15.60;;;14.10;;
73841;SDS011;62184;52.006;5.924;2023-05-07T11:15:35;15.23;;;13.63;;
73841;SDS011;62184;52.006;5.924;2023-05-07T11:18:07;15.80;;;14.20;;
73841;SDS011;62184;52.006;5.924;2023-05-07T11:20:47;15.10;;;13.60;;
73841;SDS011;62184;52.006;5.924;2023-05-07T11:26:23;16.75;;;15.15;;
73841;SDS011;62184;52.006;5.924;2023-05-07T11:28:50;15.70;;;14.00;;
73841;SDS011;62184;52.006;5.924;2023-05-07T11:31:22;17.23;;;15.52;;
73841;SDS011;62184;52.006;5.924;2023-05-07T11:33:52;16.85;;;15.23;;
73841;SDS011;62184;52.006;5.924;2023-05-07T11:36:20;16.38;;;14.88;;
73841;SDS011;62184;52.006;5.924;2023-05-07T11:38:48;17.45;;;15.75;;
73841;SDS011;62184;52.006;5.924;2023-05-07T11:41:15;18.08;;;16.27;;
73841;SDS011;62184;52.006;5.924;2023-05-07T11:46:28;16.63;;;15.00;;
73841;SDS011;62184;52.006;5.924;2023-05-07T11:48:55;16.03;;;14.53;;
73841;SDS011;62184;52.006;5.924;2023-05-07T11:51:22;17.55;;;15.85;;
73841;SDS011;62184;52.006;5.924;2023-05-07T11:53:50;17.60;;;15.60;;
73841;SDS011;62184;52.006;5.924;2023-05-07T11:56:17;16.90;;;15.30;;
73841;SDS011;62184;52.006;5.924;2023-05-07T11:58:45;17.13;;;15.43;;
73841;SDS011;62184;52.006;5.924;2023-05-07T12:01:14;17.52;;;15.93;;
73841;SDS011;62184;52.006;5.924;2023-05-07T12:03:44;17.25;;;15.57;;
73841;SDS011;62184;52.006;5.924;2023-05-07T12:06:12;16.90;;;15.25;;
73841;SDS011;62184;52.006;5.924;2023-05-07T12:08:41;18.07;;;16.23;;
73841;SDS011;62184;52.006;5.924;2023-05-07T12:11:10;16.73;;;15.13;;
73841;SDS011;62184;52.006;5.924;2023-05-07T12:13:40;16.60;;;15.00;;
73841;SDS011;62184;52.006;5.924;2023-05-07T12:16:07;17.27;;;15.57;;
73841;SDS011;62184;52.006;5.924;2023-05-07T12:18:35;17.38;;;15.60;;
73841;SDS011;62184;52.006;5.924;2023-05-07T12:21:06;17.17;;;15.47;;
73841;SDS011;62184;52.006;5.924;2023-05-07T12:23:34;17.08;;;15.27;;
73841;SDS011;62184;52.006;5.924;2023-05-07T12:26:02;16.35;;;14.85;;
73841;SDS011;62184;52.006;5.924;2023-05-07T12:28:29;16.87;;;15.17;;
73841;SDS011;62184;52.006;5.924;2023-05-07T12:30:55;16.88;;;15.20;;
73841;SDS011;62184;52.006;5.924;2023-05-07T12:33:23;16.67;;;15.00;;
73841;SDS011;62184;52.006;5.924;2023-05-07T12:35:53;16.73;;;15.23;;
73841;SDS011;62184;52.006;5.924;2023-05-07T12:38:26;15.90;;;14.30;;
73841;SDS011;62184;52.006;5.924;2023-05-07T12:40:58;15.30;;;13.88;;
73841;SDS011;62184;52.006;5.924;2023-05-07T12:43:26;15.50;;;13.90;;
73841;SDS011;62184;52.006;5.924;2023-05-07T12:45:55;15.90;;;14.30;;
73841;SDS011;62184;52.006;5.924;2023-05-07T12:48:25;15.50;;;13.90;;
73841;SDS011;62184;52.006;5.924;2023-05-07T12:50:52;15.60;;;14.00;;
73841;SDS011;62184;52.006;5.924;2023-05-07T12:53:20;16.25;;;13.55;;
73841;SDS011;62184;52.006;5.924;2023-05-07T12:55:52;15.63;;;14.02;;
73841;SDS011;62184;52.006;5.924;2023-05-07T12:58:20;15.95;;;14.38;;
73841;SDS011;62184;52.006;5.924;2023-05-07T13:00:50;15.00;;;13.50;;
73841;SDS011;62184;52.006;5.924;2023-05-07T13:03:20;15.25;;;13.65;;
73841;SDS011;62184;52.006;5.924;2023-05-07T13:05:49;15.20;;;13.70;;
73841;SDS011;62184;52.006;5.924;2023-05-07T13:08:23;14.75;;;13.25;;
73841;SDS011;62184;52.006;5.924;2023-05-07T13:10:53;14.82;;;13.23;;
73841;SDS011;62184;52.006;5.924;2023-05-07T13:13:21;14.38;;;12.88;;
73841;SDS011;62184;52.006;5.924;2023-05-07T13:15:47;13.93;;;12.52;;
73841;SDS011;62184;52.006;5.924;2023-05-07T13:18:14;13.55;;;12.15;;
73841;SDS011;62184;52.006;5.924;2023-05-07T13:20:41;14.00;;;12.60;;
73841;SDS011;62184;52.006;5.924;2023-05-07T13:23:07;14.35;;;12.90;;
73841;SDS011;62184;52.006;5.924;2023-05-07T13:25:34;14.30;;;12.90;;
73841;SDS011;62184;52.006;5.924;2023-05-07T13:28:03;14.10;;;12.70;;
73841;SDS011;62184;52.006;5.924;2023-05-07T13:30:30;15.00;;;13.50;;
73841;SDS011;62184;52.006;5.924;2023-05-07T13:32:56;14.55;;;13.15;;
73841;SDS011;62184;52.006;5.924;2023-05-07T13:35:23;14.98;;;13.48;;
73841;SDS011;62184;52.006;5.924;2023-05-07T13:37:49;14.70;;;13.20;;
73841;SDS011;62184;52.006;5.924;2023-05-07T13:40:16;14.20;;;12.80;;
73841;SDS011;62184;52.006;5.924;2023-05-07T13:42:42;14.90;;;13.43;;
73841;SDS011;62184;52.006;5.924;2023-05-07T13:45:11;14.60;;;13.15;;
73841;SDS011;62184;52.006;5.924;2023-05-07T13:47:41;15.97;;;13.67;;
73841;SDS011;62184;52.006;5.924;2023-05-07T13:50:10;14.43;;;13.02;;
73841;SDS011;62184;52.006;5.924;2023-05-07T13:52:40;14.93;;;13.43;;
73841;SDS011;62184;52.006;5.924;2023-05-07T13:55:07;15.63;;;14.02;;
73841;SDS011;62184;52.006;5.924;2023-05-07T13:57:35;14.88;;;13.38;;
73841;SDS011;62184;52.006;5.924;2023-05-07T14:00:01;14.68;;;13.25;;
73841;SDS011;62184;52.006;5.924;2023-05-07T14:02:31;13.95;;;12.48;;
73841;SDS011;62184;52.006;5.924;2023-05-07T14:04:57;13.77;;;12.23;;
73841;SDS011;62184;52.006;5.924;2023-05-07T14:07:24;12.37;;;11.17;;
73841;SDS011;62184;52.006;5.924;2023-05-07T14:09:50;11.90;;;10.70;;
73841;SDS011;62184;52.006;5.924;2023-05-07T14:12:17;11.52;;;10.43;;
73841;SDS011;62184;52.006;5.924;2023-05-07T14:14:43;11.98;;;10.77;;
73841;SDS011;62184;52.006;5.924;2023-05-07T14:17:09;11.98;;;10.68;;
73841;SDS011;62184;52.006;5.924;2023-05-07T14:19:38;13.13;;;11.50;;
73841;SDS011;62184;52.006;5.924;2023-05-07T14:22:05;12.05;;;10.95;;
73841;SDS011;62184;52.006;5.924;2023-05-07T14:24:31;10.82;;;9.60;;
73841;SDS011;62184;52.006;5.924;2023-05-07T14:26:58;12.50;;;11.30;;
73841;SDS011;62184;52.006;5.924;2023-05-07T14:29:24;13.05;;;11.65;;
73841;SDS011;62184;52.006;5.924;2023-05-07T14:31:51;12.23;;;10.98;;
73841;SDS011;62184;52.006;5.924;2023-05-07T14:34:17;14.38;;;12.93;;
73841;SDS011;62184;52.006;5.924;2023-05-07T14:36:46;14.70;;;13.30;;